Aviation Digital Data Service (ADDS)

Output produced by METARs form (1906 UTC 25 June 2017)
found at http://www.aviationweather.gov/adds/metars/
 
FMCH 251800Z 04003KT 9999 FEW020 25/24 Q1016 NOSIG
FMCH 251700Z 2518/2624 07004KT 9999 FEW020 SCT030 
     BECMG 2606/2608 19015KT 
     BECMG 2616/2618 10003KT